• Join FlightAware (Why Join?)
  • Login
  • US Flag 
Rudolph Flight #1: Arrived! 
06:48AM EST


 

Airport Tracker/Info


-or-


 

Live Flight TrackerFlight Track Log ✈ AWI4029 ✈ 20-Aug-2013 ✈ KALB - KPHL

Flight Track Log - Related Links

Times and Time Zones

All times are in EDT time to prevent confusion due to time zone crossing. See the AWI4029 flight status page for this flight to view local times or setup timezone preferences in your user account.

Time Position Orientation Groundspeed Altitude Reporting Facility
EDT Latitude Longitude Course Direction KTS MPH feet Rate Location/Type
05:35AM 42.7714 -73.8061 223° Southwest 163 188 1,200  Level Boston Center
05:37AM 42.8339 -73.8103 357° North 204 235 3,300 1,560 Climbing Boston Center
05:38AM 42.7334 -74.1884 270° West  Level FlightAware Approximate
05:38AM 42.8792 -73.8708 316° Northwest 250 288 4,900  Level Boston Center
05:39AM 42.7259 -74.3148 236° Southwest  Level FlightAware Approximate
05:39AM 42.8775 -73.9842 269° West 266 306 7,400  Level Boston Center
05:40AM 42.6561 -74.4016 220° Southwest  Level FlightAware Approximate
05:40AM 42.8761 -74.0892 269° West 271 312 9,400  Level Boston Center
05:41AM 42.5829 -74.4839 223° Southwest  Level FlightAware Approximate
05:41AM 42.8558 -74.1875 254° West 271 312 10,800  Level Boston Center
05:42AM 42.8042 -74.2881 235° Southwest 312 359 12,200 1,260 Climbing Boston Center
05:43AM 42.7278 -74.3706 218° Southwest 338 389 13,400 1,500 Climbing Boston Center
05:44AM 42.6492 -74.4556 219° Southwest 365 420 15,300 1,620 Climbing Boston Center
05:45AM 42.5664 -74.5431 218° Southwest 370 426 16,700 1,440 Climbing Boston Center
05:46AM 42.4878 -74.6278 218° Southwest 376 433 18,200 1,140 Climbing Boston Center
05:47AM 42.4025 -74.7147 217° Southwest 376 433 19,000 240 Climbing Boston Center
05:49AM 42.2303 -74.9019 219° Southwest 382 440 19,000  Level New York Center
05:50AM 42.1356 -74.9936 216° Southwest 382 440 19,000  Level New York Center
05:51AM 42.0497 -75.0664 212° Southwest 382 440 19,000  Level New York Center
05:52AM 41.9617 -75.1358 210° Southwest 377 434 19,000  Level New York Center
05:53AM 41.8822 -75.2031 212° Southwest 377 434 19,000  Level New York Center
05:54AM 41.7922 -75.2750 211° Southwest 377 434 19,000 -660 Level New York Center
05:55AM 41.6975 -75.3519 211° Southwest 377 434 17,700 -1,800 Descending New York Center
05:56AM 41.6117 -75.4211 211° Southwest 377 434 15,500 -2,100 Descending New York Center
05:57AM 41.5319 -75.4847 211° Southwest 366 421 13,600 -1,620 Descending New York Center
05:58AM 41.4633 -75.5381 210° Southwest 337 388 12,300 -840 Descending New York Center
05:59AM 41.3878 -75.5992 211° Southwest 325 374 12,000 -180 Descending New York Center
06:00AM 41.2997 -75.6672 210° Southwest 330 380 12,000  Level New York Center
06:01AM 41.2094 -75.6828 187° South 330 380 12,000  Level New York Center
06:02AM 41.1169 -75.6539 167° South 330 380 12,000  Level New York Center
06:03AM 41.0369 -75.6264 165° South 335 386 12,000  Level New York Center
06:04AM 40.9400 -75.5975 167° South 335 386 12,000 -300 Level New York Center
06:05AM 40.8539 -75.5667 165° South 330 380 11,500 -480 Descending New York Center
06:06AM 40.7797 -75.5422 166° South 316 364 11,100 -480 Descending New York Center
06:07AM 40.6975 -75.5144 166° South 311 358 10,600 -540 Descending New York Center
06:08AM 40.6175 -75.4872 166° South 306 352 10,100 -300 Descending New York Center
06:09AM 40.5372 -75.4625 167° South 306 352 10,000 -60 Descending New York Center
06:10AM 40.4550 -75.4325 164° South 301 346 10,000 -780 Level New York Center
06:11AM 40.3758 -75.3753 151° Southeast 301 346 8,500 -1,500 Descending New York Center
06:12AM 40.3050 -75.3214 150° Southeast 291 335 7,000 -1,260 Descending New York Center
06:13AM 40.2383 -75.2708 150° Southeast 286 329 6,000 -540 Descending New York Center
06:14AM 40.1672 -75.2200 151° Southeast 286 329 6,000  Level New York Center
06:15AM 40.1000 -75.1667 149° Southeast 288 331 6,000  Level Philadelphia TRACON
06:16AM 40.0500 -75.1167 143° Southeast 236 272 6,000 -720 Level Philadelphia TRACON
06:17AM 40.0000 -75.0667 143° Southeast 211 243 4,600 -1,560 Descending Philadelphia TRACON
06:18AM 39.9500 -75.0167 143° Southeast 207 238 2,900 -1,260 Descending Philadelphia TRACON
06:19AM 39.9167 -75.0500 217° Southwest 180 207 2,100 -600 Descending Philadelphia TRACON
06:20AM 39.9000 -75.1000 247° West 178 205 1,800 -540 Descending Philadelphia TRACON
06:21AM 39.8833 -75.1667 252° West 135 155 1,000 -720 Descending Philadelphia TRACON
06:22AM 39.8833 -75.2167 270° West 140 161 300 -720 Descending Philadelphia TRACON